Curtis Field
KBBD : now visible

Airfield :











YOU CAN JOIN US ON...

 
LOGIN :

Register | Disclaimer

   EN    FR    IT 

 









Legend :    VFR   Marginal VFR   IFR   Intensive IFR   Very Intensive IFR
Visi :
Ceiling :
>= 8 km
>= 3000ft
5 to 8 km
1000 to 3000 ft
1500m to 5 km
500 to 1000 ft
800 to 1500m
200 to 500 ft
< 800m
< 200 ft
Symbols :   Thunderstorms  Fog  Heavy snow  Heavy precipitations  Wind > 20 kt






- Airport Elevation : 1827 ft


KBBD - Curtis Field

CURRENT METAR :
  • 201615Z AUTO 18011G17KT 10SM SCT030 BKN037 25/18 A3002 RMK AO2

EXPIRED METARs :
  • 201555Z AUTO 18012G20KT 10SM SCT029 BKN035 25/18 A3003 RMK AO2
  • 201535Z AUTO 19014G21KT 10SM SCT026 BKN031 BKN039 25/18 A3002 RMK AO2
  • 201515Z AUTO 18012G19KT 150V210 10SM BKN023 BKN029 25/19 A3002 RMK AO2
  • 201455Z AUTO 17010G17KT 10SM BKN017 OVC023 24/19 A3002 RMK AO2
  • 201435Z AUTO 16013G20KT 9SM BKN016 BKN023 23/19 A3002 RMK AO2
  • 201415Z AUTO 16009G14KT 10SM SCT015 SCT045 23/20 A3001 RMK AO2
  • 201355Z AUTO 15007KT 10SM SCT046 22/20 A3001 RMK AO2
  • 201335Z AUTO 15007G13KT 10SM BKN045 21/19 A3000 RMK AO2

TAF KBBD
Valid from the 20 at 12:00 until the 21 at 12:00 UTC


201130Z 2012/2112 15007KT P6SM BKN035
FM201600 17012G20KT P6SM BKN040
FM202000 17012G20KT P6SM SCT060
KZHU FIR / North America



MET'MAP, your aeronautical weather chart ! - Copyright ORBIFLY December 2007 - Disclaimer

ORBIFLY MET'MAP TEAM :

Programming & Development : Alexandra Zaïnal
Concept & original design : Baudouin d'Aumeries
Assistance for programming : Marc-Olivier Méhu
Technical & hardware support : Manuel Goepfert

Contact : metmap@orbifly.com




SOURCES & CREDITS :

   NOAA       Earth
Advisory